sensor_id;sensor_type;location;lat;lon;timestamp;P1;durP1;ratioP1;P2;durP2;ratioP2
71626;SDS011;59475;52.464;13.590;2023-06-10T00:00:45;13.63;;;5.43;;
71626;SDS011;59475;52.464;13.590;2023-06-10T00:03:10;8.30;;;3.93;;
71626;SDS011;59475;52.464;13.590;2023-06-10T00:05:38;7.70;;;4.22;;
71626;SDS011;59475;52.464;13.590;2023-06-10T00:08:04;10.40;;;3.50;;
71626;SDS011;59475;52.464;13.590;2023-06-10T00:10:36;12.43;;;5.00;;
71626;SDS011;59475;52.464;13.590;2023-06-10T00:13:03;11.73;;;6.05;;
71626;SDS011;59475;52.464;13.590;2023-06-10T00:15:30;11.10;;;4.70;;
71626;SDS011;59475;52.464;13.590;2023-06-10T00:17:56;9.33;;;4.23;;
71626;SDS011;59475;52.464;13.590;2023-06-10T00:20:21;9.98;;;3.67;;
71626;SDS011;59475;52.464;13.590;2023-06-10T00:22:49;8.70;;;3.97;;
71626;SDS011;59475;52.464;13.590;2023-06-10T00:25:14;7.82;;;3.95;;
71626;SDS011;59475;52.464;13.590;2023-06-10T00:27:40;7.93;;;4.07;;
71626;SDS011;59475;52.464;13.590;2023-06-10T00:30:06;9.63;;;3.53;;
71626;SDS011;59475;52.464;13.590;2023-06-10T00:32:36;8.85;;;4.07;;
71626;SDS011;59475;52.464;13.590;2023-06-10T00:35:02;8.68;;;3.78;;
71626;SDS011;59475;52.464;13.590;2023-06-10T00:37:32;8.95;;;4.10;;
71626;SDS011;59475;52.464;13.590;2023-06-10T00:39:59;12.07;;;3.90;;
71626;SDS011;59475;52.464;13.590;2023-06-10T00:42:25;9.67;;;4.00;;
71626;SDS011;59475;52.464;13.590;2023-06-10T00:44:50;9.20;;;4.03;;
71626;SDS011;59475;52.464;13.590;2023-06-10T00:47:16;8.82;;;4.63;;
71626;SDS011;59475;52.464;13.590;2023-06-10T00:49:42;10.30;;;4.40;;
71626;SDS011;59475;52.464;13.590;2023-06-10T00:52:08;9.90;;;4.53;;
71626;SDS011;59475;52.464;13.590;2023-06-10T00:54:35;9.15;;;4.30;;
71626;SDS011;59475;52.464;13.590;2023-06-10T00:57:02;9.65;;;3.88;;
71626;SDS011;59475;52.464;13.590;2023-06-10T00:59:28;9.43;;;4.67;;
71626;SDS011;59475;52.464;13.590;2023-06-10T01:01:54;6.88;;;3.53;;
71626;SDS011;59475;52.464;13.590;2023-06-10T01:04:21;8.13;;;3.92;;
71626;SDS011;59475;52.464;13.590;2023-06-10T01:15:14;10.55;;;4.53;;
71626;SDS011;59475;52.464;13.590;2023-06-10T01:18:00;8.07;;;3.92;;
71626;SDS011;59475;52.464;13.590;2023-06-10T01:20:28;7.10;;;3.45;;
71626;SDS011;59475;52.464;13.590;2023-06-10T01:22:54;9.13;;;3.87;;
71626;SDS011;59475;52.464;13.590;2023-06-10T01:25:23;8.63;;;3.80;;
71626;SDS011;59475;52.464;13.590;2023-06-10T01:33:19;11.20;;;3.70;;
71626;SDS011;59475;52.464;13.590;2023-06-10T01:35:52;8.45;;;3.88;;
71626;SDS011;59475;52.464;13.590;2023-06-10T01:38:19;10.30;;;4.35;;
71626;SDS011;59475;52.464;13.590;2023-06-10T01:40:45;7.18;;;3.67;;
71626;SDS011;59475;52.464;13.590;2023-06-10T01:43:13;10.23;;;4.30;;
71626;SDS011;59475;52.464;13.590;2023-06-10T01:45:38;8.17;;;4.47;;
71626;SDS011;59475;52.464;13.590;2023-06-10T01:48:04;11.83;;;4.93;;
71626;SDS011;59475;52.464;13.590;2023-06-10T01:50:30;11.77;;;3.88;;
71626;SDS011;59475;52.464;13.590;2023-06-10T01:52:56;10.03;;;4.93;;
71626;SDS011;59475;52.464;13.590;2023-06-10T01:55:22;9.98;;;4.60;;
71626;SDS011;59475;52.464;13.590;2023-06-10T01:57:48;9.27;;;5.83;;
71626;SDS011;59475;52.464;13.590;2023-06-10T02:00:13;11.87;;;3.97;;
71626;SDS011;59475;52.464;13.590;2023-06-10T02:02:39;14.27;;;4.50;;
71626;SDS011;59475;52.464;13.590;2023-06-10T02:05:05;8.50;;;4.50;;
71626;SDS011;59475;52.464;13.590;2023-06-10T02:07:30;9.48;;;4.57;;
71626;SDS011;59475;52.464;13.590;2023-06-10T02:09:56;9.97;;;4.63;;
71626;SDS011;59475;52.464;13.590;2023-06-10T02:12:21;8.23;;;4.40;;
71626;SDS011;59475;52.464;13.590;2023-06-10T02:14:46;11.80;;;4.47;;
71626;SDS011;59475;52.464;13.590;2023-06-10T02:17:12;9.75;;;4.63;;
71626;SDS011;59475;52.464;13.590;2023-06-10T02:19:39;10.20;;;4.80;;
71626;SDS011;59475;52.464;13.590;2023-06-10T02:22:07;11.45;;;4.45;;
71626;SDS011;59475;52.464;13.590;2023-06-10T02:24:35;7.72;;;3.90;;
71626;SDS011;59475;52.464;13.590;2023-06-10T02:27:02;11.00;;;4.30;;
71626;SDS011;59475;52.464;13.590;2023-06-10T02:29:29;8.95;;;4.88;;
71626;SDS011;59475;52.464;13.590;2023-06-10T02:31:54;11.23;;;4.87;;
71626;SDS011;59475;52.464;13.590;2023-06-10T02:34:19;11.30;;;5.03;;
71626;SDS011;59475;52.464;13.590;2023-06-10T02:36:45;7.32;;;4.43;;
71626;SDS011;59475;52.464;13.590;2023-06-10T02:39:11;11.23;;;4.20;;
71626;SDS011;59475;52.464;13.590;2023-06-10T02:41:36;9.67;;;4.77;;
71626;SDS011;59475;52.464;13.590;2023-06-10T02:44:02;10.45;;;4.40;;
71626;SDS011;59475;52.464;13.590;2023-06-10T02:46:28;9.05;;;4.35;;
71626;SDS011;59475;52.464;13.590;2023-06-10T02:48:53;7.87;;;4.47;;
71626;SDS011;59475;52.464;13.590;2023-06-10T02:51:19;11.70;;;4.47;;
71626;SDS011;59475;52.464;13.590;2023-06-10T02:53:45;10.43;;;4.72;;
71626;SDS011;59475;52.464;13.590;2023-06-10T02:56:11;11.23;;;4.43;;
71626;SDS011;59475;52.464;13.590;2023-06-10T02:58:37;10.30;;;4.67;;
71626;SDS011;59475;52.464;13.590;2023-06-10T03:01:03;11.85;;;5.43;;
71626;SDS011;59475;52.464;13.590;2023-06-10T03:03:28;9.73;;;4.83;;
71626;SDS011;59475;52.464;13.590;2023-06-10T03:05:55;8.98;;;4.70;;
71626;SDS011;59475;52.464;13.590;2023-06-10T03:08:21;10.73;;;4.50;;
71626;SDS011;59475;52.464;13.590;2023-06-10T03:10:47;14.20;;;4.67;;
71626;SDS011;59475;52.464;13.590;2023-06-10T03:13:12;11.63;;;4.70;;
71626;SDS011;59475;52.464;13.590;2023-06-10T03:15:39;13.95;;;4.97;;
71626;SDS011;59475;52.464;13.590;2023-06-10T03:18:05;11.55;;;5.72;;
71626;SDS011;59475;52.464;13.590;2023-06-10T03:20:31;9.13;;;4.43;;
71626;SDS011;59475;52.464;13.590;2023-06-10T03:23:02;12.88;;;4.75;;
71626;SDS011;59475;52.464;13.590;2023-06-10T03:25:27;13.02;;;5.28;;
71626;SDS011;59475;52.464;13.590;2023-06-10T03:27:53;13.35;;;5.65;;
71626;SDS011;59475;52.464;13.590;2023-06-10T03:30:19;10.17;;;5.53;;
71626;SDS011;59475;52.464;13.590;2023-06-10T03:32:44;10.67;;;5.70;;
71626;SDS011;59475;52.464;13.590;2023-06-10T03:35:09;10.50;;;4.77;;
71626;SDS011;59475;52.464;13.590;2023-06-10T03:37:35;10.43;;;5.00;;
71626;SDS011;59475;52.464;13.590;2023-06-10T03:40:01;10.10;;;5.15;;
71626;SDS011;59475;52.464;13.590;2023-06-10T03:42:26;8.90;;;4.10;;
71626;SDS011;59475;52.464;13.590;2023-06-10T03:44:51;10.93;;;5.38;;
71626;SDS011;59475;52.464;13.590;2023-06-10T03:47:17;9.87;;;4.57;;
71626;SDS011;59475;52.464;13.590;2023-06-10T03:49:43;10.57;;;5.72;;
71626;SDS011;59475;52.464;13.590;2023-06-10T03:52:08;9.77;;;5.30;;
71626;SDS011;59475;52.464;13.590;2023-06-10T03:54:33;10.80;;;5.03;;
71626;SDS011;59475;52.464;13.590;2023-06-10T03:57:00;10.70;;;4.90;;
71626;SDS011;59475;52.464;13.590;2023-06-10T03:59:25;12.03;;;4.73;;
71626;SDS011;59475;52.464;13.590;2023-06-10T04:01:51;10.82;;;4.47;;
71626;SDS011;59475;52.464;13.590;2023-06-10T04:04:16;12.13;;;4.97;;
71626;SDS011;59475;52.464;13.590;2023-06-10T04:06:42;9.73;;;5.40;;
71626;SDS011;59475;52.464;13.590;2023-06-10T04:09:08;10.50;;;5.20;;
71626;SDS011;59475;52.464;13.590;2023-06-10T04:11:34;11.75;;;5.65;;
71626;SDS011;59475;52.464;13.590;2023-06-10T04:14:00;13.63;;;4.90;;
71626;SDS011;59475;52.464;13.590;2023-06-10T04:16:26;14.00;;;5.17;;
71626;SDS011;59475;52.464;13.590;2023-06-10T04:18:52;10.32;;;5.40;;
71626;SDS011;59475;52.464;13.590;2023-06-10T04:21:18;10.53;;;4.70;;
71626;SDS011;59475;52.464;13.590;2023-06-10T04:23:43;12.23;;;5.20;;
71626;SDS011;59475;52.464;13.590;2023-06-10T04:26:08;9.57;;;4.88;;
71626;SDS011;59475;52.464;13.590;2023-06-10T04:28:34;12.82;;;5.30;;
71626;SDS011;59475;52.464;13.590;2023-06-10T04:31:01;10.10;;;4.87;;
71626;SDS011;59475;52.464;13.590;2023-06-10T04:33:29;11.55;;;4.85;;
71626;SDS011;59475;52.464;13.590;2023-06-10T04:35:55;11.68;;;4.78;;
71626;SDS011;59475;52.464;13.590;2023-06-10T04:38:20;10.50;;;5.73;;
71626;SDS011;59475;52.464;13.590;2023-06-10T04:40:46;9.75;;;4.95;;
71626;SDS011;59475;52.464;13.590;2023-06-10T04:43:11;10.30;;;5.80;;
71626;SDS011;59475;52.464;13.590;2023-06-10T04:45:38;8.07;;;5.00;;
71626;SDS011;59475;52.464;13.590;2023-06-10T04:48:03;13.13;;;5.10;;
71626;SDS011;59475;52.464;13.590;2023-06-10T04:50:28;8.10;;;5.07;;
71626;SDS011;59475;52.464;13.590;2023-06-10T04:52:54;12.10;;;5.17;;
71626;SDS011;59475;52.464;13.590;2023-06-10T04:55:22;8.55;;;5.05;;
71626;SDS011;59475;52.464;13.590;2023-06-10T04:57:48;8.52;;;4.28;;
71626;SDS011;59475;52.464;13.590;2023-06-10T05:00:13;10.10;;;5.13;;
71626;SDS011;59475;52.464;13.590;2023-06-10T05:02:39;14.48;;;5.28;;
71626;SDS011;59475;52.464;13.590;2023-06-10T05:05:04;12.63;;;5.57;;
71626;SDS011;59475;52.464;13.590;2023-06-10T05:07:31;8.90;;;4.78;;
71626;SDS011;59475;52.464;13.590;2023-06-10T05:09:56;10.73;;;5.00;;
71626;SDS011;59475;52.464;13.590;2023-06-10T05:12:21;8.37;;;4.57;;
71626;SDS011;59475;52.464;13.590;2023-06-10T05:14:47;11.48;;;5.15;;
71626;SDS011;59475;52.464;13.590;2023-06-10T05:17:12;8.80;;;4.77;;
71626;SDS011;59475;52.464;13.590;2023-06-10T05:19:38;8.90;;;4.83;;
71626;SDS011;59475;52.464;13.590;2023-06-10T05:22:03;8.90;;;5.37;;
71626;SDS011;59475;52.464;13.590;2023-06-10T05:24:29;9.50;;;5.32;;
71626;SDS011;59475;52.464;13.590;2023-06-10T05:26:54;9.30;;;5.50;;
71626;SDS011;59475;52.464;13.590;2023-06-10T05:29:20;9.53;;;5.00;;
71626;SDS011;59475;52.464;13.590;2023-06-10T05:31:45;8.48;;;5.40;;
71626;SDS011;59475;52.464;13.590;2023-06-10T05:34:11;8.37;;;4.87;;
71626;SDS011;59475;52.464;13.590;2023-06-10T05:36:36;11.03;;;4.93;;
71626;SDS011;59475;52.464;13.590;2023-06-10T05:39:02;8.52;;;5.60;;
71626;SDS011;59475;52.464;13.590;2023-06-10T05:41:27;9.50;;;5.43;;
71626;SDS011;59475;52.464;13.590;2023-06-10T05:43:53;10.60;;;5.57;;
71626;SDS011;59475;52.464;13.590;2023-06-10T05:46:19;12.17;;;5.70;;
71626;SDS011;59475;52.464;13.590;2023-06-10T05:48:44;11.25;;;5.50;;
71626;SDS011;59475;52.464;13.590;2023-06-10T05:51:10;8.67;;;5.30;;
71626;SDS011;59475;52.464;13.590;2023-06-10T05:53:35;11.10;;;5.77;;
71626;SDS011;59475;52.464;13.590;2023-06-10T05:56:01;13.03;;;5.37;;
71626;SDS011;59475;52.464;13.590;2023-06-10T05:58:26;9.70;;;5.63;;
71626;SDS011;59475;52.464;13.590;2023-06-10T06:00:52;9.57;;;5.33;;
71626;SDS011;59475;52.464;13.590;2023-06-10T06:03:17;9.27;;;5.17;;
71626;SDS011;59475;52.464;13.590;2023-06-10T06:05:43;9.13;;;5.28;;
71626;SDS011;59475;52.464;13.590;2023-06-10T06:08:09;12.43;;;6.00;;
71626;SDS011;59475;52.464;13.590;2023-06-10T06:10:34;11.95;;;6.07;;
71626;SDS011;59475;52.464;13.590;2023-06-10T06:13:00;10.57;;;5.80;;
71626;SDS011;59475;52.464;13.590;2023-06-10T06:15:26;12.55;;;5.70;;
71626;SDS011;59475;52.464;13.590;2023-06-10T06:17:52;9.05;;;5.15;;
71626;SDS011;59475;52.464;13.590;2023-06-10T06:20:18;12.67;;;5.87;;
71626;SDS011;59475;52.464;13.590;2023-06-10T06:22:44;10.90;;;5.88;;
71626;SDS011;59475;52.464;13.590;2023-06-10T06:25:09;9.27;;;6.10;;
71626;SDS011;59475;52.464;13.590;2023-06-10T06:27:35;9.93;;;5.87;;
71626;SDS011;59475;52.464;13.590;2023-06-10T06:30:00;14.37;;;6.07;;
71626;SDS011;59475;52.464;13.590;2023-06-10T06:32:26;10.37;;;5.67;;
71626;SDS011;59475;52.464;13.590;2023-06-10T06:34:52;10.32;;;6.00;;
71626;SDS011;59475;52.464;13.590;2023-06-10T06:37:22;11.47;;;5.67;;
71626;SDS011;59475;52.464;13.590;2023-06-10T06:39:50;11.20;;;5.63;;
71626;SDS011;59475;52.464;13.590;2023-06-10T06:42:15;10.48;;;6.35;;
71626;SDS011;59475;52.464;13.590;2023-06-10T06:44:41;9.50;;;6.23;;
71626;SDS011;59475;52.464;13.590;2023-06-10T06:47:07;10.43;;;6.13;;
71626;SDS011;59475;52.464;13.590;2023-06-10T06:49:32;12.93;;;6.00;;
71626;SDS011;59475;52.464;13.590;2023-06-10T06:51:58;11.98;;;6.35;;
71626;SDS011;59475;52.464;13.590;2023-06-10T06:54:23;9.13;;;6.60;;
71626;SDS011;59475;52.464;13.590;2023-06-10T06:56:48;10.17;;;6.97;;
71626;SDS011;59475;52.464;13.590;2023-06-10T06:59:15;9.77;;;6.10;;
71626;SDS011;59475;52.464;13.590;2023-06-10T07:01:42;9.98;;;6.28;;
71626;SDS011;59475;52.464;13.590;2023-06-10T07:04:07;10.63;;;6.43;;
71626;SDS011;59475;52.464;13.590;2023-06-10T07:06:33;13.77;;;6.47;;
71626;SDS011;59475;52.464;13.590;2023-06-10T07:08:58;12.40;;;6.40;;
71626;SDS011;59475;52.464;13.590;2023-06-10T07:11:23;11.43;;;6.30;;
71626;SDS011;59475;52.464;13.590;2023-06-10T07:13:49;8.17;;;6.00;;
71626;SDS011;59475;52.464;13.590;2023-06-10T07:16:14;11.67;;;6.70;;
71626;SDS011;59475;52.464;13.590;2023-06-10T07:18:40;12.87;;;6.10;;
71626;SDS011;59475;52.464;13.590;2023-06-10T07:21:05;10.43;;;6.22;;
71626;SDS011;59475;52.464;13.590;2023-06-10T07:23:30;10.07;;;6.20;;
71626;SDS011;59475;52.464;13.590;2023-06-10T07:25:56;7.90;;;6.20;;
71626;SDS011;59475;52.464;13.590;2023-06-10T07:28:21;9.03;;;6.03;;
71626;SDS011;59475;52.464;13.590;2023-06-10T07:30:46;10.53;;;6.67;;
71626;SDS011;59475;52.464;13.590;2023-06-10T07:33:12;11.23;;;6.47;;
71626;SDS011;59475;52.464;13.590;2023-06-10T07:35:37;10.00;;;6.03;;
71626;SDS011;59475;52.464;13.590;2023-06-10T07:38:02;9.40;;;6.37;;
71626;SDS011;59475;52.464;13.590;2023-06-10T07:40:28;10.73;;;6.33;;
71626;SDS011;59475;52.464;13.590;2023-06-10T07:42:54;9.60;;;6.20;;
71626;SDS011;59475;52.464;13.590;2023-06-10T07:45:20;13.38;;;6.57;;
71626;SDS011;59475;52.464;13.590;2023-06-10T07:47:46;15.37;;;5.80;;
71626;SDS011;59475;52.464;13.590;2023-06-10T07:50:11;11.20;;;6.38;;
71626;SDS011;59475;52.464;13.590;2023-06-10T07:52:36;9.23;;;6.50;;
71626;SDS011;59475;52.464;13.590;2023-06-10T07:55:02;10.97;;;6.40;;
71626;SDS011;59475;52.464;13.590;2023-06-10T07:57:27;11.57;;;6.60;;
71626;SDS011;59475;52.464;13.590;2023-06-10T07:59:53;13.60;;;6.37;;
71626;SDS011;59475;52.464;13.590;2023-06-10T08:02:20;12.35;;;6.22;;
71626;SDS011;59475;52.464;13.590;2023-06-10T08:04:45;13.93;;;6.20;;
71626;SDS011;59475;52.464;13.590;2023-06-10T08:07:10;8.43;;;5.93;;
71626;SDS011;59475;52.464;13.590;2023-06-10T08:09:36;8.13;;;6.33;;
71626;SDS011;59475;52.464;13.590;2023-06-10T08:12:01;8.30;;;6.78;;
71626;SDS011;59475;52.464;13.590;2023-06-10T08:14:27;9.00;;;6.83;;
71626;SDS011;59475;52.464;13.590;2023-06-10T08:16:52;8.87;;;7.00;;
71626;SDS011;59475;52.464;13.590;2023-06-10T08:19:17;9.67;;;6.50;;
71626;SDS011;59475;52.464;13.590;2023-06-10T08:21:43;9.30;;;6.47;;
71626;SDS011;59475;52.464;13.590;2023-06-10T08:24:09;9.90;;;5.70;;
71626;SDS011;59475;52.464;13.590;2023-06-10T08:26:35;11.07;;;6.18;;
71626;SDS011;59475;52.464;13.590;2023-06-10T08:29:00;11.30;;;6.00;;
71626;SDS011;59475;52.464;13.590;2023-06-10T08:31:26;8.97;;;5.93;;
71626;SDS011;59475;52.464;13.590;2023-06-10T08:33:51;8.23;;;6.13;;
71626;SDS011;59475;52.464;13.590;2023-06-10T08:36:17;11.23;;;6.47;;
71626;SDS011;59475;52.464;13.590;2023-06-10T08:38:42;10.10;;;6.13;;
71626;SDS011;59475;52.464;13.590;2023-06-10T08:41:07;9.90;;;6.30;;
71626;SDS011;59475;52.464;13.590;2023-06-10T08:46:36;9.60;;;6.60;;
71626;SDS011;59475;52.464;13.590;2023-06-10T08:49:05;8.68;;;6.13;;
71626;SDS011;59475;52.464;13.590;2023-06-10T08:51:34;16.27;;;6.93;;
71626;SDS011;59475;52.464;13.590;2023-06-10T08:54:03;9.65;;;6.28;;
71626;SDS011;59475;52.464;13.590;2023-06-10T08:56:34;9.48;;;6.40;;
71626;SDS011;59475;52.464;13.590;2023-06-10T08:59:04;11.52;;;6.40;;
71626;SDS011;59475;52.464;13.590;2023-06-10T09:01:30;10.45;;;6.32;;
71626;SDS011;59475;52.464;13.590;2023-06-10T09:03:56;9.97;;;6.60;;
71626;SDS011;59475;52.464;13.590;2023-06-10T09:06:23;10.82;;;6.30;;
71626;SDS011;59475;52.464;13.590;2023-06-10T09:08:50;8.40;;;6.23;;
71626;SDS011;59475;52.464;13.590;2023-06-10T09:11:16;10.27;;;6.30;;
71626;SDS011;59475;52.464;13.590;2023-06-10T09:13:41;7.97;;;6.27;;
71626;SDS011;59475;52.464;13.590;2023-06-10T09:16:07;9.45;;;6.13;;
71626;SDS011;59475;52.464;13.590;2023-06-10T09:18:32;9.83;;;6.07;;
71626;SDS011;59475;52.464;13.590;2023-06-10T09:20:59;11.32;;;6.30;;
71626;SDS011;59475;52.464;13.590;2023-06-10T09:23:25;10.97;;;6.10;;
71626;SDS011;59475;52.464;13.590;2023-06-10T09:25:57;8.03;;;6.33;;
71626;SDS011;59475;52.464;13.590;2023-06-10T09:28:23;12.02;;;6.00;;
71626;SDS011;59475;52.464;13.590;2023-06-10T09:30:49;8.82;;;6.22;;
71626;SDS011;59475;52.464;13.590;2023-06-10T09:33:15;12.73;;;5.80;;
71626;SDS011;59475;52.464;13.590;2023-06-10T09:35:47;7.63;;;5.82;;
71626;SDS011;59475;52.464;13.590;2023-06-10T09:38:14;11.57;;;5.95;;
71626;SDS011;59475;52.464;13.590;2023-06-10T09:40:54;6.95;;;5.80;;
71626;SDS011;59475;52.464;13.590;2023-06-10T09:43:20;8.43;;;6.20;;
71626;SDS011;59475;52.464;13.590;2023-06-10T09:45:49;9.05;;;6.05;;
71626;SDS011;59475;52.464;13.590;2023-06-10T09:48:18;8.63;;;6.78;;
71626;SDS011;59475;52.464;13.590;2023-06-10T09:50:43;6.77;;;5.70;;
71626;SDS011;59475;52.464;13.590;2023-06-10T09:53:10;9.05;;;5.25;;
71626;SDS011;59475;52.464;13.590;2023-06-10T09:55:39;7.18;;;5.82;;
71626;SDS011;59475;52.464;13.590;2023-06-10T09:58:06;10.35;;;5.90;;
71626;SDS011;59475;52.464;13.590;2023-06-10T10:00:32;12.40;;;5.33;;
71626;SDS011;59475;52.464;13.590;2023-06-10T10:02:58;11.67;;;5.43;;
71626;SDS011;59475;52.464;13.590;2023-06-10T10:05:26;6.47;;;5.10;;
71626;SDS011;59475;52.464;13.590;2023-06-10T10:07:52;8.15;;;6.00;;
71626;SDS011;59475;52.464;13.590;2023-06-10T10:10:18;9.07;;;5.90;;
71626;SDS011;59475;52.464;13.590;2023-06-10T10:12:47;7.85;;;5.43;;
71626;SDS011;59475;52.464;13.590;2023-06-10T10:15:13;10.45;;;5.82;;
71626;SDS011;59475;52.464;13.590;2023-06-10T10:17:46;7.60;;;5.15;;
71626;SDS011;59475;52.464;13.590;2023-06-10T10:20:29;6.80;;;4.47;;
71626;SDS011;59475;52.464;13.590;2023-06-10T10:22:57;5.80;;;4.63;;
71626;SDS011;59475;52.464;13.590;2023-06-10T10:25:26;7.57;;;4.78;;
71626;SDS011;59475;52.464;13.590;2023-06-10T10:27:57;9.40;;;5.72;;
71626;SDS011;59475;52.464;13.590;2023-06-10T10:30:28;7.25;;;5.32;;
71626;SDS011;59475;52.464;13.590;2023-06-10T10:35:34;5.87;;;5.10;;
71626;SDS011;59475;52.464;13.590;2023-06-10T10:38:01;5.05;;;4.30;;
71626;SDS011;59475;52.464;13.590;2023-06-10T10:40:28;5.32;;;4.13;;
71626;SDS011;59475;52.464;13.590;2023-06-10T10:42:55;6.28;;;4.15;;
71626;SDS011;59475;52.464;13.590;2023-06-10T10:45:21;5.10;;;3.45;;
71626;SDS011;59475;52.464;13.590;2023-06-10T10:47:47;8.27;;;4.43;;
71626;SDS011;59475;52.464;13.590;2023-06-10T10:50:18;5.30;;;3.85;;
71626;SDS011;59475;52.464;13.590;2023-06-10T10:55:21;6.33;;;4.03;;
71626;SDS011;59475;52.464;13.590;2023-06-10T10:58:06;5.75;;;4.20;;
71626;SDS011;59475;52.464;13.590;2023-06-10T11:00:36;5.97;;;4.30;;
71626;SDS011;59475;52.464;13.590;2023-06-10T11:03:08;6.97;;;4.68;;
71626;SDS011;59475;52.464;13.590;2023-06-10T11:08:09;6.07;;;4.40;;
71626;SDS011;59475;52.464;13.590;2023-06-10T11:10:36;7.32;;;4.43;;
71626;SDS011;59475;52.464;13.590;2023-06-10T11:13:09;4.88;;;4.07;;
71626;SDS011;59475;52.464;13.590;2023-06-10T11:15:45;6.03;;;4.28;;
71626;SDS011;59475;52.464;13.590;2023-06-10T11:33:52;5.45;;;4.43;;
71626;SDS011;59475;52.464;13.590;2023-06-10T11:36:18;6.55;;;4.05;;
71626;SDS011;59475;52.464;13.590;2023-06-10T11:38:43;4.53;;;3.60;;
71626;SDS011;59475;52.464;13.590;2023-06-10T11:41:10;6.23;;;3.40;;
71626;SDS011;59475;52.464;13.590;2023-06-10T11:43:36;6.07;;;3.53;;
71626;SDS011;59475;52.464;13.590;2023-06-10T11:46:02;5.25;;;3.50;;
71626;SDS011;59475;52.464;13.590;2023-06-10T11:48:30;9.63;;;3.50;;
71626;SDS011;59475;52.464;13.590;2023-06-10T11:50:56;4.97;;;3.45;;
71626;SDS011;59475;52.464;13.590;2023-06-10T11:53:21;7.43;;;4.47;;
71626;SDS011;59475;52.464;13.590;2023-06-10T11:55:47;4.70;;;4.00;;
71626;SDS011;59475;52.464;13.590;2023-06-10T11:58:19;6.53;;;4.70;;
71626;SDS011;59475;52.464;13.590;2023-06-10T12:03:23;6.18;;;5.10;;
71626;SDS011;59475;52.464;13.590;2023-06-10T12:05:59;6.47;;;5.10;;
71626;SDS011;59475;52.464;13.590;2023-06-10T12:08:26;7.32;;;5.47;;
71626;SDS011;59475;52.464;13.590;2023-06-10T12:10:52;7.10;;;5.10;;
71626;SDS011;59475;52.464;13.590;2023-06-10T12:13:19;9.63;;;5.20;;
71626;SDS011;59475;52.464;13.590;2023-06-10T12:15:44;7.65;;;5.80;;
71626;SDS011;59475;52.464;13.590;2023-06-10T12:18:20;8.53;;;5.87;;
71626;SDS011;59475;52.464;13.590;2023-06-10T12:20:48;7.57;;;5.88;;
71626;SDS011;59475;52.464;13.590;2023-06-10T12:23:16;8.85;;;5.65;;
71626;SDS011;59475;52.464;13.590;2023-06-10T12:25:49;7.45;;;5.32;;
71626;SDS011;59475;52.464;13.590;2023-06-10T12:28:16;8.25;;;5.30;;
71626;SDS011;59475;52.464;13.590;2023-06-10T12:30:44;10.23;;;5.70;;
71626;SDS011;59475;52.464;13.590;2023-06-10T12:33:16;10.27;;;5.25;;
71626;SDS011;59475;52.464;13.590;2023-06-10T12:35:48;10.18;;;5.47;;
71626;SDS011;59475;52.464;13.590;2023-06-10T12:38:20;7.70;;;4.80;;
71626;SDS011;59475;52.464;13.590;2023-06-10T12:40:47;6.80;;;4.97;;
71626;SDS011;59475;52.464;13.590;2023-06-10T12:43:13;6.38;;;5.10;;
71626;SDS011;59475;52.464;13.590;2023-06-10T12:45:44;9.32;;;5.72;;
71626;SDS011;59475;52.464;13.590;2023-06-10T12:48:10;6.67;;;5.30;;
71626;SDS011;59475;52.464;13.590;2023-06-10T12:50:38;7.30;;;5.75;;
71626;SDS011;59475;52.464;13.590;2023-06-10T12:53:05;7.68;;;5.28;;
71626;SDS011;59475;52.464;13.590;2023-06-10T12:55:31;9.90;;;5.77;;
71626;SDS011;59475;52.464;13.590;2023-06-10T12:57:58;6.35;;;5.60;;
71626;SDS011;59475;52.464;13.590;2023-06-10T13:00:24;9.48;;;6.45;;
71626;SDS011;59475;52.464;13.590;2023-06-10T13:02:59;7.05;;;5.68;;
71626;SDS011;59475;52.464;13.590;2023-06-10T13:05:26;8.18;;;6.03;;
71626;SDS011;59475;52.464;13.590;2023-06-10T13:07:51;6.43;;;5.83;;
71626;SDS011;59475;52.464;13.590;2023-06-10T13:10:17;7.00;;;5.82;;
71626;SDS011;59475;52.464;13.590;2023-06-10T13:12:43;5.83;;;4.90;;
71626;SDS011;59475;52.464;13.590;2023-06-10T13:15:10;6.57;;;5.35;;
71626;SDS011;59475;52.464;13.590;2023-06-10T13:17:36;6.47;;;5.32;;
71626;SDS011;59475;52.464;13.590;2023-06-10T13:20:02;9.93;;;5.63;;
71626;SDS011;59475;52.464;13.590;2023-06-10T13:22:30;7.63;;;5.38;;
71626;SDS011;59475;52.464;13.590;2023-06-10T13:24:58;5.97;;;5.13;;
71626;SDS011;59475;52.464;13.590;2023-06-10T13:27:24;7.82;;;5.32;;
71626;SDS011;59475;52.464;13.590;2023-06-10T13:29:50;6.65;;;4.85;;
71626;SDS011;59475;52.464;13.590;2023-06-10T13:32:15;5.93;;;4.87;;
71626;SDS011;59475;52.464;13.590;2023-06-10T13:34:41;7.23;;;4.80;;
71626;SDS011;59475;52.464;13.590;2023-06-10T13:37:06;6.75;;;5.22;;
71626;SDS011;59475;52.464;13.590;2023-06-10T13:39:32;5.50;;;4.73;;
71626;SDS011;59475;52.464;13.590;2023-06-10T13:41:57;5.53;;;4.67;;
71626;SDS011;59475;52.464;13.590;2023-06-10T13:44:24;6.77;;;4.57;;
71626;SDS011;59475;52.464;13.590;2023-06-10T13:46:49;7.07;;;4.93;;
71626;SDS011;59475;52.464;13.590;2023-06-10T13:49:14;9.03;;;4.60;;
71626;SDS011;59475;52.464;13.590;2023-06-10T13:51:40;8.47;;;4.67;;
71626;SDS011;59475;52.464;13.590;2023-06-10T13:54:05;7.27;;;4.90;;
71626;SDS011;59475;52.464;13.590;2023-06-10T13:56:30;6.17;;;4.63;;
71626;SDS011;59475;52.464;13.590;2023-06-10T13:58:56;8.48;;;4.47;;
71626;SDS011;59475;52.464;13.590;2023-06-10T14:01:21;7.80;;;5.03;;
71626;SDS011;59475;52.464;13.590;2023-06-10T14:03:47;5.83;;;5.17;;
71626;SDS011;59475;52.464;13.590;2023-06-10T14:06:12;5.40;;;4.67;;
71626;SDS011;59475;52.464;13.590;2023-06-10T14:08:40;6.50;;;5.22;;
71626;SDS011;59475;52.464;13.590;2023-06-10T14:11:05;7.53;;;5.23;;
71626;SDS011;59475;52.464;13.590;2023-06-10T14:13:31;5.37;;;4.67;;
71626;SDS011;59475;52.464;13.590;2023-06-10T14:15:57;5.82;;;5.22;;
71626;SDS011;59475;52.464;13.590;2023-06-10T14:18:27;5.70;;;5.10;;
71626;SDS011;59475;52.464;13.590;2023-06-10T14:20:54;6.07;;;5.05;;
71626;SDS011;59475;52.464;13.590;2023-06-10T14:23:19;8.75;;;5.45;;
71626;SDS011;59475;52.464;13.590;2023-06-10T14:25:46;7.37;;;5.00;;
71626;SDS011;59475;52.464;13.590;2023-06-10T14:28:11;5.82;;;5.00;;
71626;SDS011;59475;52.464;13.590;2023-06-10T14:30:36;9.00;;;5.30;;
71626;SDS011;59475;52.464;13.590;2023-06-10T14:33:02;6.60;;;4.80;;
71626;SDS011;59475;52.464;13.590;2023-06-10T14:35:27;6.82;;;5.22;;
71626;SDS011;59475;52.464;13.590;2023-06-10T14:37:53;5.83;;;4.63;;
71626;SDS011;59475;52.464;13.590;2023-06-10T14:40:19;6.50;;;4.90;;
71626;SDS011;59475;52.464;13.590;2023-06-10T14:42:46;10.15;;;5.07;;
71626;SDS011;59475;52.464;13.590;2023-06-10T14:45:13;7.90;;;4.93;;
71626;SDS011;59475;52.464;13.590;2023-06-10T14:47:41;10.80;;;5.50;;
71626;SDS011;59475;52.464;13.590;2023-06-10T14:50:06;6.85;;;5.20;;
71626;SDS011;59475;52.464;13.590;2023-06-10T14:52:34;7.10;;;4.72;;
71626;SDS011;59475;52.464;13.590;2023-06-10T14:55:00;8.55;;;4.70;;
71626;SDS011;59475;52.464;13.590;2023-06-10T14:57:25;7.73;;;5.07;;
71626;SDS011;59475;52.464;13.590;2023-06-10T14:59:50;5.57;;;4.80;;
71626;SDS011;59475;52.464;13.590;2023-06-10T15:02:16;6.53;;;4.80;;
71626;SDS011;59475;52.464;13.590;2023-06-10T15:04:41;8.88;;;5.50;;
71626;SDS011;59475;52.464;13.590;2023-06-10T15:07:07;5.90;;;4.30;;